Terminal Aerodrome Forecast
Issued by NWS Jackson, MS

Home | Current Version | Previous Version | Text Only | Print | Product List | Glossary On
Versions: 1 2 3 4 5 6 7 8 9 10 11 12
489
FTUS44 KJAN 222338
TAFGWO
TAF
KGWO 222338Z 2300/2324 29003KT 4SM RA BR VCSH FEW080 OVC100
     FM230700 00000KT 4SM BR VCSH BKN025 BKN250
     FM231300 35003KT P6SM SCT030 BKN250=

USA.gov is the U.S. government's official web portal to all federal, state and local government web resources and services.